Time;durP1;ratioP1;P1;durP2;ratioP2;P2;SDS_P1;SDS_P2;PMS_P1;PMS_P2;Temp;Humidity;BMP_temperature;BMP_pressure;BME280_temperature;BME280_humidity;BME280_pressure;Samples;Min_cycle;Max_cycle;Signal;HPM_P1;HPM_P2
2021/10/01 00:01:06;;;;;;;13.73;7.90;;;;;;;11.63;56.86;101616.84;3511092;28;20568;-75
2021/10/01 00:02:47;;;;;;;15.02;9.02;;;;;;;11.64;56.76;101620.34;3510844;28;20035;-74
2021/10/01 00:04:27;;;;;;;14.52;8.90;;;;;;;11.62;56.60;101620.50;3510879;28;20051;-73
2021/10/01 00:06:08;;;;;;;17.90;8.60;;;;;;;11.60;56.93;101627.81;3510520;28;20109;-74
2021/10/01 00:07:49;;;;;;;16.80;9.30;;;;;;;11.61;56.84;101618.81;3495828;28;20086;-74
2021/10/01 00:09:30;;;;;;;12.32;8.13;;;;;;;11.65;57.24;101628.22;3507808;28;20040;-74
2021/10/01 00:11:10;;;;;;;15.85;8.82;;;;;;;11.70;57.29;101622.41;3510677;28;20048;-73
2021/10/01 00:12:51;;;;;;;13.80;8.40;;;;;;;11.71;56.99;101630.25;3510673;28;20047;-73
2021/10/01 00:14:32;;;;;;;10.93;8.80;;;;;;;11.73;56.75;101624.78;3510319;28;20131;-73
2021/10/01 00:16:13;;;;;;;19.98;9.73;;;;;;;11.75;56.50;101620.13;3495835;28;20078;-72
2021/10/01 00:17:54;;;;;;;11.05;8.50;;;;;;;11.78;56.52;101617.13;3507882;28;20051;-73
2021/10/01 00:19:35;;;;;;;12.93;9.30;;;;;;;11.81;56.44;101621.31;3510781;28;20047;-74
2021/10/01 00:21:15;;;;;;;12.85;9.05;;;;;;;11.79;56.16;101624.97;3510561;28;20498;-74
2021/10/01 00:22:56;;;;;;;14.80;9.02;;;;;;;11.77;55.96;101624.31;3510775;28;20082;-73
2021/10/01 00:24:37;;;;;;;14.73;10.18;;;;;;;11.76;56.20;101617.28;3510502;28;20110;-72
2021/10/01 00:26:17;;;;;;;13.48;8.40;;;;;;;11.79;56.18;101630.31;3510908;28;20078;-73
2021/10/01 00:27:58;;;;;;;13.57;8.45;;;;;;;11.78;56.20;101620.63;3510314;28;20044;-73
2021/10/01 00:29:40;;;;;;;13.50;9.10;;;;;;;11.79;56.12;101627.66;3510355;28;20065;-74
2021/10/01 00:31:20;;;;;;;13.27;7.70;;;;;;;11.79;56.15;101624.97;3510532;28;20066;-73
2021/10/01 00:33:01;;;;;;;14.60;9.60;;;;;;;11.77;56.05;101628.78;3510516;28;20290;-73
2021/10/01 00:34:42;;;;;;;14.70;8.70;;;;;;;11.77;56.02;101626.97;3510521;28;20044;-73
2021/10/01 00:36:23;;;;;;;15.57;9.10;;;;;;;11.78;55.82;101628.66;3510560;28;20062;-73
2021/10/01 00:38:04;;;;;;;13.48;8.65;;;;;;;11.73;55.89;101625.59;3510299;28;20396;-72
2021/10/01 00:39:45;;;;;;;13.23;8.65;;;;;;;11.74;56.07;101629.94;3495224;28;20155;-72
2021/10/01 00:41:27;;;;;;;13.20;9.02;;;;;;;11.73;55.83;101622.09;3495414;28;20045;-72
2021/10/01 00:43:07;;;;;;;15.57;9.18;;;;;;;11.71;55.93;101622.25;3507427;28;20044;-72
2021/10/01 00:44:49;;;;;;;14.77;8.88;;;;;;;11.69;55.96;101624.22;3510367;28;20070;-72
2021/10/01 00:46:30;;;;;;;17.60;8.60;;;;;;;11.70;56.30;101625.91;3509909;28;20371;-71
2021/10/01 00:48:11;;;;;;;12.90;9.02;;;;;;;11.71;56.09;101624.91;3495306;28;20158;-70
2021/10/01 00:49:51;;;;;;;17.88;9.38;;;;;;;11.72;55.96;101617.72;3507326;28;20054;-70
2021/10/01 00:51:34;;;;;;;15.15;9.27;;;;;;;11.73;55.85;101624.78;3494864;28;20101;-70
2021/10/01 00:53:16;;;;;;;13.93;9.18;;;;;;;11.74;55.99;101621.09;3492761;28;20626;-70
2021/10/01 00:54:58;;;;;;;17.58;8.32;;;;;;;11.75;55.98;101623.63;3479025;28;20045;-71
2021/10/01 00:56:39;;;;;;;12.95;8.52;;;;;;;11.81;56.30;101621.31;3490135;28;20044;-71
2021/10/01 00:58:20;;;;;;;14.13;8.48;;;;;;;11.88;56.20;101623.25;3507187;28;20036;-71
2021/10/01 01:00:01;;;;;;;12.65;8.80;;;;;;;11.86;55.76;101627.03;3494940;28;20114;-73
2021/10/01 01:01:42;;;;;;;14.98;9.43;;;;;;;11.79;55.61;101622.31;3492566;28;20045;-72
2021/10/01 01:03:22;;;;;;;15.00;8.60;;;;;;;11.77;55.92;101620.78;3507239;28;20541;-72
2021/10/01 01:05:03;;;;;;;10.82;7.72;;;;;;;11.76;55.79;101625.28;3509558;28;20060;-74
2021/10/01 01:07:04;;;;;;;13.35;9.23;;;;;;;11.77;55.79;101621.63;3481152;28;20037;-72
2021/10/01 01:09:20;;;;;;;16.00;9.18;;;;;;;11.87;55.62;101626.91;3481259;28;20491;-73
2021/10/01 01:11:08;;;;;;;16.30;9.85;;;;;;;11.82;55.37;101621.16;3455693;28;20059;-72
2021/10/01 01:12:58;;;;;;;15.68;9.38;;;;;;;11.79;55.52;101624.13;3491372;28;20040;-72
2021/10/01 01:14:55;;;;;;;15.52;9.20;;;;;;;11.81;55.40;101621.31;3494853;28;20040;-72
2021/10/01 01:16:36;;;;;;;16.27;9.43;;;;;;;11.76;55.63;101629.78;3480270;28;20053;-72
2021/10/01 01:18:28;;;;;;;11.95;9.43;;;;;;;11.71;55.31;101616.06;3489744;28;20115;-71
2021/10/01 01:20:18;;;;;;;14.07;9.52;;;;;;;11.71;55.22;101627.59;3493645;28;20048;-72
2021/10/01 01:22:09;;;;;;;12.95;8.30;;;;;;;11.73;55.50;101628.28;3493610;28;20079;-73
2021/10/01 01:24:09;;;;;;;12.80;9.45;;;;;;;11.73;55.20;101630.94;3492888;28;20066;-73
2021/10/01 01:26:23;;;;;;;13.63;8.68;;;;;;;11.66;55.22;101623.69;3494648;28;20400;-71
2021/10/01 01:28:12;;;;;;;13.85;8.82;;;;;;;11.58;55.28;101627.97;3480918;28;20040;-73
2021/10/01 01:30:13;;;;;;;12.57;8.07;;;;;;;11.60;55.41;101619.81;3479459;28;20084;-74
2021/10/01 01:31:57;;;;;;;11.70;9.07;;;;;;;11.58;55.47;101619.97;3494883;28;20507;-72
2021/10/01 01:33:39;;;;;;;;;;;;;;;11.72;55.41;101623.94;3492745;28;20380;-72
2021/10/01 01:35:23;;;;;;;16.92;7.75;;;;;;;11.77;55.28;101624.31;3478254;28;19916;-71
2021/10/01 01:37:11;;;;;;;14.32;8.75;;;;;;;11.81;54.82;101627.50;3476495;28;20099;-71
2021/10/01 01:38:53;;;;;;;13.32;9.27;;;;;;;11.77;55.22;101624.31;3491540;28;20071;-71
2021/10/01 01:40:35;;;;;;;13.52;8.63;;;;;;;11.80;55.48;101620.50;3480728;28;20518;-71
2021/10/01 01:42:17;;;;;;;14.30;8.70;;;;;;;11.82;55.21;101628.34;3489626;28;20503;-73
2021/10/01 01:43:59;;;;;;;15.82;9.40;;;;;;;11.81;55.31;101626.66;3491930;28;20511;-72
2021/10/01 01:45:42;;;;;;;13.87;9.03;;;;;;;11.82;55.21;101623.00;3492502;28;20127;-71
2021/10/01 01:47:23;;;;;;;14.93;8.60;;;;;;;11.80;54.99;101628.50;3478656;28;20330;-71
2021/10/01 01:49:03;;;;;;;13.98;7.65;;;;;;;11.77;55.11;101623.44;3461850;28;20046;-71
2021/10/01 01:50:44;;;;;;;14.65;8.77;;;;;;;11.77;55.26;101624.31;3486885;28;20040;-71
2021/10/01 01:52:25;;;;;;;11.20;8.27;;;;;;;11.77;55.36;101621.63;3494840;28;20066;-71
2021/10/01 01:54:07;;;;;;;12.35;8.60;;;;;;;11.78;55.32;101617.97;3478125;28;20072;-71
2021/10/01 01:55:48;;;;;;;14.73;9.17;;;;;;;11.78;54.98;101620.63;3475876;28;20044;-71
2021/10/01 01:57:30;;;;;;;11.85;8.90;;;;;;;11.78;55.17;101625.97;3489594;28;20427;-71
2021/10/01 01:59:12;;;;;;;12.32;8.63;;;;;;;11.76;55.18;101627.97;3478304;28;20041;-72
2021/10/01 02:00:55;;;;;;;11.32;8.43;;;;;;;11.75;55.21;101626.28;3490073;28;20094;-71
2021/10/01 02:02:36;;;;;;;12.88;9.30;;;;;;;11.74;54.95;101616.59;3491849;28;20071;-71
2021/10/01 02:04:17;;;;;;;12.73;9.27;;;;;;;11.74;54.95;101621.91;3494702;28;20056;-72
2021/10/01 02:05:59;;;;;;;13.35;8.45;;;;;;;11.74;55.38;101613.91;3478462;28;20045;-72
2021/10/01 02:07:41;;;;;;;14.10;9.03;;;;;;;11.71;55.20;101618.72;3475485;28;20435;-71
2021/10/01 02:09:23;;;;;;;10.73;8.02;;;;;;;11.69;55.45;101623.38;3489712;28;20364;-72
2021/10/01 02:11:05;;;;;;;13.85;9.63;;;;;;;11.66;55.38;101619.19;3494552;28;20133;-72
2021/10/01 02:12:47;;;;;;;10.48;8.30;;;;;;;11.63;55.40;101614.16;3491946;28;20040;-71
2021/10/01 02:14:29;;;;;;;10.27;7.78;;;;;;;11.56;55.36;101613.97;3494622;28;20048;-72
2021/10/01 02:16:10;;;;;;;13.85;9.02;;;;;;;11.54;55.55;101615.09;3494758;28;20072;-71
2021/10/01 02:17:53;;;;;;;12.52;9.70;;;;;;;11.49;55.40;101614.72;3480910;28;20051;-70
2021/10/01 02:19:34;;;;;;;12.13;8.35;;;;;;;11.51;55.46;101612.72;3478397;28;20083;-72
2021/10/01 02:21:15;;;;;;;12.70;9.38;;;;;;;11.51;55.71;101615.38;3478080;28;20095;-72
2021/10/01 02:22:56;;;;;;;13.95;9.18;;;;;;;11.48;55.47;101610.34;3491877;28;20048;-72
2021/10/01 02:24:37;;;;;;;16.08;9.40;;;;;;;11.46;55.40;101615.88;3494245;28;20502;-73
2021/10/01 02:26:36;;;;;;;12.57;8.65;;;;;;;11.48;56.05;101615.69;3494328;28;20538;-73
2021/10/01 02:28:30;;;;;;;14.00;9.48;;;;;;;11.54;55.72;101615.94;3496941;28;20141;-72
2021/10/01 02:30:16;;;;;;;13.77;9.35;;;;;;;11.53;55.54;101624.09;3481994;28;20068;-71
2021/10/01 02:32:05;;;;;;;10.55;7.97;;;;;;;11.55;55.49;101616.75;3493261;28;20037;-72
2021/10/01 02:33:47;;;;;;;14.68;8.90;;;;;;;11.50;55.43;101619.88;3510595;28;20471;-73
2021/10/01 02:35:28;;;;;;;13.20;9.45;;;;;;;11.47;55.52;101625.53;3469659;28;20045;-71
2021/10/01 02:37:09;;;;;;;11.25;8.60;;;;;;;11.40;55.33;101623.63;3488839;28;20496;-72
2021/10/01 02:38:52;;;;;;;11.98;8.65;;;;;;;11.38;55.72;101622.94;3509369;28;20044;-72
2021/10/01 02:40:34;;;;;;;13.65;8.80;;;;;;;11.40;55.85;101626.31;3496845;28;20040;-73
2021/10/01 02:42:19;;;;;;;11.77;8.00;;;;;;;11.43;56.25;101626.00;3494645;28;20048;-72
2021/10/01 02:44:00;;;;;;;12.45;9.00;;;;;;;11.44;56.15;101625.03;3509575;28;20040;-71
2021/10/01 02:45:41;;;;;;;15.25;9.05;;;;;;;11.47;56.00;101632.72;3497855;28;20520;-71
2021/10/01 02:47:29;;;;;;;11.98;8.18;;;;;;;11.49;55.58;101625.41;3494887;28;20040;-72
2021/10/01 02:49:10;;;;;;;14.25;9.10;;;;;;;11.46;55.59;101626.53;3495777;28;20431;-71
2021/10/01 02:50:58;;;;;;;13.00;8.73;;;;;;;11.46;55.69;101625.69;3494965;28;20116;-71
2021/10/01 02:53:12;;;;;;;12.13;8.38;;;;;;;11.49;55.65;101626.25;3497766;28;20033;-72
2021/10/01 02:55:21;;;;;;;17.02;9.32;;;;;;;11.49;56.11;101623.56;3483523;28;20057;-72
2021/10/01 02:57:08;;;;;;;10.93;8.30;;;;;;;11.51;55.57;101626.06;3497281;28;20072;-72
2021/10/01 02:58:55;;;;;;;13.25;9.60;;;;;;;11.52;55.58;101622.41;3509931;28;20438;-73
2021/10/01 03:00:37;;;;;;;13.13;8.98;;;;;;;11.49;55.54;101628.06;3483325;28;20503;-73
2021/10/01 03:02:20;;;;;;;13.77;9.60;;;;;;;11.45;55.57;101630.19;3492161;28;20059;-72
2021/10/01 03:04:02;;;;;;;13.98;9.07;;;;;;;11.43;55.79;101628.66;3494290;28;20519;-72
2021/10/01 03:05:46;;;;;;;12.93;9.45;;;;;;;11.42;55.88;101632.34;3480577;28;20049;-73
2021/10/01 03:07:29;;;;;;;13.93;9.43;;;;;;;11.43;55.84;101624.16;3478155;28;20052;-72
2021/10/01 03:09:10;;;;;;;12.98;9.02;;;;;;;11.45;55.88;101632.03;3491285;28;20036;-72
2021/10/01 03:10:54;;;;;;;15.07;10.05;;;;;;;11.46;55.96;101633.69;3494261;28;20048;-72
2021/10/01 03:12:35;;;;;;;13.88;9.50;;;;;;;11.45;55.81;101627.53;3508611;28;20066;-73
2021/10/01 03:14:16;;;;;;;14.65;9.52;;;;;;;11.43;55.60;101629.50;3496689;28;20135;-72
2021/10/01 03:15:59;;;;;;;16.98;9.18;;;;;;;11.41;55.64;101630.63;3480078;28;20462;-72
2021/10/01 03:17:41;;;;;;;13.68;9.80;;;;;;;11.35;55.65;101626.75;3491790;28;20052;-72
2021/10/01 03:19:24;;;;;;;;;;;;;;;11.40;55.53;101624.47;3494451;28;20044;-70
2021/10/01 03:21:07;;;;;;;12.82;9.25;;;;;;;11.24;55.88;101625.16;3496178;28;20354;-73
2021/10/01 03:22:51;;;;;;;14.60;9.70;;;;;;;11.15;55.88;101618.03;3480310;28;20045;-73
2021/10/01 03:24:33;;;;;;;12.65;8.63;;;;;;;11.18;56.19;101625.75;3491595;28;20141;-71
2021/10/01 03:26:15;;;;;;;19.77;10.47;;;;;;;11.16;56.13;101630.41;3479824;28;20476;-73
2021/10/01 03:27:56;;;;;;;15.63;9.70;;;;;;;11.13;56.18;101628.03;3491089;28;20320;-74
2021/10/01 03:29:37;;;;;;;16.60;11.77;;;;;;;11.12;56.11;101629.84;3493267;28;20041;-74
2021/10/01 03:31:18;;;;;;;18.13;9.60;;;;;;;11.16;56.38;101629.56;3479900;28;20045;-73
2021/10/01 03:32:59;;;;;;;14.05;9.38;;;;;;;11.22;56.27;101628.97;3490611;28;20044;-72
2021/10/01 03:34:40;;;;;;;12.80;9.90;;;;;;;11.26;55.94;101639.19;3493632;28;20033;-70
2021/10/01 03:36:23;;;;;;;13.45;9.30;;;;;;;11.30;55.78;101632.53;3493855;28;20051;-71
2021/10/01 03:38:12;;;;;;;22.05;10.13;;;;;;;11.31;55.69;101626.22;3493591;28;20040;-71
2021/10/01 03:39:58;;;;;;;14.30;10.45;;;;;;;11.32;55.83;101629.72;3495864;28;20044;-71
2021/10/01 03:41:39;;;;;;;12.90;9.50;;;;;;;11.34;55.60;101628.59;3493893;28;20067;-72
2021/10/01 03:43:24;;;;;;;15.32;10.68;;;;;;;11.31;55.65;101626.22;3479741;28;20068;-72
2021/10/01 03:45:09;;;;;;;12.63;9.73;;;;;;;11.33;55.72;101636.72;3491259;28;20585;-73
2021/10/01 03:46:50;;;;;;;13.63;9.93;;;;;;;11.34;55.95;101636.59;3494153;28;20040;-71
2021/10/01 03:48:30;;;;;;;15.00;9.20;;;;;;;11.32;55.80;101635.06;3507741;28;20105;-72
2021/10/01 03:50:16;;;;;;;12.80;8.27;;;;;;;11.31;56.04;101644.91;3496129;28;20041;-72
2021/10/01 03:51:58;;;;;;;12.35;8.68;;;;;;;11.35;56.02;101638.25;3495843;28;20130;-72
2021/10/01 03:53:40;;;;;;;13.30;9.38;;;;;;;11.41;56.01;101638.66;3495784;28;20123;-71
2021/10/01 03:55:21;;;;;;;14.13;9.63;;;;;;;11.42;55.88;101635.00;3508139;28;20518;-73
2021/10/01 03:57:03;;;;;;;13.82;9.68;;;;;;;11.44;55.72;101641.03;3495693;28;20505;-71
2021/10/01 03:58:49;;;;;;;15.55;11.10;;;;;;;11.46;55.62;101644.38;3493126;28;20045;-73
2021/10/01 04:00:30;;;;;;;13.73;9.60;;;;;;;11.48;55.71;101637.06;3493493;28;20119;-75
2021/10/01 04:02:11;;;;;;;14.13;10.77;;;;;;;11.48;55.53;101631.72;3481920;28;20075;-72
2021/10/01 04:03:51;;;;;;;14.50;10.18;;;;;;;11.50;55.58;101638.59;3490385;28;20055;-74
2021/10/01 04:05:33;;;;;;;21.33;10.43;;;;;;;11.52;55.69;101638.44;3492944;28;20067;-73
2021/10/01 04:07:14;;;;;;;15.60;9.63;;;;;;;11.52;55.53;101638.44;3493035;28;20044;-72
2021/10/01 04:08:54;;;;;;;13.43;10.63;;;;;;;11.52;55.42;101643.78;3495686;28;20048;-73
2021/10/01 04:10:35;;;;;;;14.32;10.15;;;;;;;11.51;55.54;101634.06;3492592;28;20430;-73
2021/10/01 04:12:16;;;;;;;18.50;12.10;;;;;;;11.48;55.45;101637.06;3492658;28;20588;-73
2021/10/01 04:13:57;;;;;;;17.80;10.30;;;;;;;11.47;55.54;101635.38;3495605;28;20040;-72
2021/10/01 04:15:38;;;;;;;19.20;11.55;;;;;;;11.47;55.42;101632.72;3481863;28;20095;-72
2021/10/01 04:17:19;;;;;;;15.63;10.70;;;;;;;11.44;55.53;101630.34;3476495;28;20424;-72
2021/10/01 04:19:00;;;;;;;13.07;10.93;;;;;;;11.45;55.27;101626.69;3504827;28;20040;-73
2021/10/01 04:20:43;;;;;;;14.20;11.05;;;;;;;11.40;55.40;101628.97;3495487;28;21234;-71
2021/10/01 04:22:25;;;;;;;17.60;11.48;;;;;;;11.37;55.47;101630.13;3493399;28;20097;-72
2021/10/01 04:24:26;;;;;;;15.00;10.88;;;;;;;11.35;55.53;101638.25;3468925;28;20158;-72
2021/10/01 04:26:10;;;;;;;17.30;10.50;;;;;;;11.34;55.40;101633.94;3495471;28;20099;-74
2021/10/01 04:27:50;;;;;;;15.60;9.80;;;;;;;11.32;55.67;101629.72;3492796;28;20531;-75
2021/10/01 04:29:31;;;;;;;17.38;11.70;;;;;;;11.35;55.76;101627.59;3492801;28;20052;-73
2021/10/01 04:31:12;;;;;;;13.80;11.00;;;;;;;11.38;55.72;101625.59;3479008;28;20532;-72
2021/10/01 04:33:12;;;;;;;14.52;10.23;;;;;;;11.32;55.48;101625.22;3482691;28;20033;-73
2021/10/01 04:35:00;;;;;;;19.13;10.88;;;;;;;11.31;55.77;101626.22;3482954;28;20522;-76
2021/10/01 04:36:41;;;;;;;17.10;10.65;;;;;;;11.30;55.80;101624.53;3482997;28;20037;-77
2021/10/01 04:38:22;;;;;;;16.45;11.10;;;;;;;11.34;56.19;101631.25;3469435;28;20091;-75
2021/10/01 04:40:04;;;;;;;;;;;;;;;11.47;55.72;101624.72;3476909;28;20567;-75
2021/10/01 04:41:49;;;;;;;14.32;10.77;;;;;;;11.46;55.63;101634.56;3479955;28;19927;-76
2021/10/01 04:43:30;;;;;;;12.48;10.05;;;;;;;11.49;55.67;101628.06;3479347;28;20040;-72
2021/10/01 04:45:22;;;;;;;;;;;;;;;11.58;55.40;101638.66;3483368;28;20107;-73
2021/10/01 04:47:03;;;;;;;15.13;9.43;;;;;;;11.52;55.42;101633.94;3481808;28;20015;-75
2021/10/01 04:48:44;;;;;;;15.73;9.82;;;;;;;11.52;55.72;101638.44;3482889;28;20045;-74
2021/10/01 04:50:30;;;;;;;14.65;10.43;;;;;;;11.47;55.56;101628.22;3481518;28;20074;-73
2021/10/01 04:52:11;;;;;;;20.83;10.98;;;;;;;11.44;55.53;101639.19;3478825;28;20603;-74
2021/10/01 04:53:52;;;;;;;14.52;10.32;;;;;;;11.44;55.70;101636.53;3482223;28;20118;-74
2021/10/01 04:55:33;;;;;;;21.00;11.65;;;;;;;11.46;55.71;101639.03;3481166;28;20041;-74
2021/10/01 04:57:14;;;;;;;20.83;12.07;;;;;;;11.48;55.60;101632.56;3482238;28;20599;-74
2021/10/01 04:59:13;;;;;;;18.17;10.80;;;;;;;11.57;55.49;101633.47;3482343;28;20534;-74
2021/10/01 05:01:28;;;;;;;;;;;;;;;11.71;55.43;101643.59;3459568;28;20426;-74
2021/10/01 05:03:28;;;;;;;20.80;11.02;;;;;;;11.69;55.46;101647.44;3481537;28;19986;-73
2021/10/01 05:05:28;;;;;;;16.15;9.52;;;;;;;11.75;55.66;101645.00;3482018;28;20056;-75
2021/10/01 05:07:31;;;;;;;17.00;10.50;;;;;;;11.78;55.32;101643.84;3481981;28;20049;-74
2021/10/01 05:09:31;;;;;;;18.98;12.48;;;;;;;11.80;55.26;101641.88;3482326;28;20049;-74
2021/10/01 05:11:30;;;;;;;18.50;11.80;;;;;;;11.74;55.06;101643.28;3482190;28;20407;-74
2021/10/01 05:13:30;;;;;;;17.85;12.07;;;;;;;11.68;55.05;101641.25;3482003;28;20068;-74
2021/10/01 05:15:29;;;;;;;17.73;10.35;;;;;;;11.70;55.39;101644.63;3481286;28;20048;-75
2021/10/01 05:17:28;;;;;;;15.15;11.48;;;;;;;11.70;55.25;101641.94;3482250;28;20099;-74
2021/10/01 05:19:27;;;;;;;16.40;10.85;;;;;;;11.70;55.24;101649.13;3482215;28;20423;-75
2021/10/01 05:21:26;;;;;;;17.05;10.85;;;;;;;11.68;55.10;101646.59;3481440;28;20056;-75
2021/10/01 05:23:12;;;;;;;15.55;11.25;;;;;;;11.66;55.28;101643.22;3467493;28;20045;-74
2021/10/01 05:24:53;;;;;;;20.83;11.70;;;;;;;11.68;55.32;101638.59;3478434;28;20129;-73
2021/10/01 05:26:34;;;;;;;14.63;10.85;;;;;;;11.73;55.20;101648.81;3478364;28;20068;-75
2021/10/01 05:28:14;;;;;;;37.58;23.27;;;;;;;11.72;54.90;101645.31;3482072;28;20102;-76
2021/10/01 05:29:55;;;;;;;31.25;16.33;;;;;;;11.72;55.30;101642.63;3484181;28;20113;-74
2021/10/01 05:31:36;;;;;;;19.80;12.55;;;;;;;11.72;55.70;101634.63;3491919;28;20036;-74
2021/10/01 05:33:17;;;;;;;20.23;13.63;;;;;;;11.79;55.53;101640.16;3495854;28;20048;-73
2021/10/01 05:34:58;;;;;;;18.15;12.65;;;;;;;11.78;55.04;101644.69;3495702;28;20044;-76
2021/10/01 05:36:38;;;;;;;16.90;11.57;;;;;;;11.79;55.01;101641.00;3495022;28;20044;-78
2021/10/01 05:38:19;;;;;;;17.98;10.95;;;;;;;11.81;54.81;101642.69;3492896;28;20080;-77
2021/10/01 05:40:00;;;;;;;21.48;12.45;;;;;;;11.81;54.71;101648.88;3481009;28;20045;-76
2021/10/01 05:41:40;;;;;;;16.95;11.48;;;;;;;11.83;55.42;101646.91;3478072;28;20474;-74
2021/10/01 05:43:24;;;;;;;22.40;11.68;;;;;;;11.87;55.06;101645.59;3489315;28;20052;-74
2021/10/01 05:45:07;;;;;;;18.73;11.75;;;;;;;11.98;55.10;101644.53;3492652;28;20086;-74
2021/10/01 05:47:20;;;;;;;14.73;10.75;;;;;;;12.08;54.69;101650.63;3461846;28;20839;-74
2021/10/01 05:49:43;;;;;;;15.48;12.25;;;;;;;12.02;54.39;101648.56;3461928;28;20192;-71
2021/10/01 05:51:48;;;;;;;18.60;11.60;;;;;;;11.96;54.56;101644.69;3495796;28;20077;-72
2021/10/01 05:56:09;;;;;;;23.05;15.32;;;;;;;11.89;54.26;101645.47;3497721;28;20040;-73
2021/10/01 05:58:10;;;;;;;21.95;13.38;;;;;;;11.83;54.40;101644.22;3465795;28;20058;-72
2021/10/01 06:00:01;;;;;;;18.83;13.13;;;;;;;11.84;54.70;101645.88;3496686;28;20124;-73
2021/10/01 06:01:41;;;;;;;21.90;13.15;;;;;;;11.83;54.59;101649.56;3494644;28;20453;-72
2021/10/01 06:03:23;;;;;;;21.15;12.95;;;;;;;11.79;54.38;101649.00;3494846;28;20055;-73
2021/10/01 06:05:04;;;;;;;22.92;13.25;;;;;;;11.73;54.31;101644.31;3483291;28;20091;-72
2021/10/01 06:06:44;;;;;;;21.30;13.85;;;;;;;11.66;54.58;101651.25;3495402;28;20056;-71
2021/10/01 06:08:25;;;;;;;20.98;12.82;;;;;;;11.63;54.83;101651.56;3498457;28;20047;-73
2021/10/01 06:10:07;;;;;;;19.98;13.68;;;;;;;11.64;54.61;101652.38;3497082;28;20059;-72
2021/10/01 06:11:48;;;;;;;20.42;13.43;;;;;;;11.69;54.72;101650.94;3498049;28;20863;-73
2021/10/01 06:13:28;;;;;;;22.30;13.50;;;;;;;11.75;54.48;101650.34;3497958;28;20040;-74
2021/10/01 06:15:10;;;;;;;17.25;12.57;;;;;;;11.73;54.17;101646.13;3497616;28;20131;-73
2021/10/01 06:16:51;;;;;;;21.63;12.20;;;;;;;11.73;54.33;101656.81;3497382;28;20044;-72
2021/10/01 06:18:31;;;;;;;15.97;11.17;;;;;;;11.75;54.59;101661.03;3497125;28;20036;-72
2021/10/01 06:20:12;;;;;;;26.17;13.35;;;;;;;11.73;54.32;101652.31;3497014;28;20302;-72
2021/10/01 06:21:54;;;;;;;21.58;12.57;;;;;;;11.81;54.32;101664.91;3497653;28;20044;-71
2021/10/01 06:23:35;;;;;;;19.73;12.73;;;;;;;11.80;54.46;101657.91;3497648;28;20411;-73
2021/10/01 06:25:16;;;;;;;20.50;13.10;;;;;;;11.81;54.32;101656.88;3497410;28;20037;-72
2021/10/01 06:26:57;;;;;;;17.88;11.57;;;;;;;11.86;54.63;101657.31;3498059;28;20403;-73
2021/10/01 06:28:37;;;;;;;17.48;11.27;;;;;;;11.96;54.34;101659.88;3496685;28;20057;-71
2021/10/01 06:30:19;;;;;;;16.08;11.82;;;;;;;12.01;53.94;101649.56;3503152;28;20097;-72
2021/10/01 06:31:59;;;;;;;19.00;12.10;;;;;;;12.07;53.75;101664.13;3511569;28;20032;-72
2021/10/01 06:33:42;;;;;;;20.95;12.35;;;;;;;12.14;53.37;101658.00;3512161;28;20076;-72
2021/10/01 06:35:23;;;;;;;15.35;11.38;;;;;;;12.20;53.30;101664.56;3512088;28;20551;-72
2021/10/01 06:37:04;;;;;;;20.73;11.82;;;;;;;12.23;53.38;101665.09;3511939;28;20044;-73
2021/10/01 06:38:44;;;;;;;24.63;13.25;;;;;;;12.26;53.06;101668.44;3511942;28;20186;-72
2021/10/01 06:40:25;;;;;;;23.50;13.88;;;;;;;12.24;53.03;101655.25;3511483;28;20040;-73
2021/10/01 06:42:06;;;;;;;37.60;12.43;;;;;;;12.23;52.75;101665.09;3511671;28;20407;-73
2021/10/01 06:43:47;;;;;;;20.30;13.48;;;;;;;12.19;52.87;101663.72;3511717;28;20097;-71
2021/10/01 06:45:30;;;;;;;23.27;14.68;;;;;;;12.15;52.96;101675.72;3510737;28;20456;-73
2021/10/01 06:47:17;;;;;;;16.77;12.05;;;;;;;12.08;52.76;101661.31;3499663;28;20029;-73
2021/10/01 06:49:23;;;;;;;12.93;10.00;;;;;;;12.14;52.99;101671.38;3509026;28;20509;-75
2021/10/01 06:51:26;;;;;;;15.60;11.02;;;;;;;12.18;52.92;101666.56;3498000;28;20530;-71
2021/10/01 07:20:42;;;;;;;21.85;12.70;;;;;;;12.23;52.65;101670.44;3500408;28;20044;-72
2021/10/01 08:20:32;;;;;;;19.42;12.13;;;;;;;11.55;53.58;101660.31;3503560;28;20120;-79
2021/10/01 08:22:13;;;;;;;15.88;11.25;;;;;;;11.49;53.77;101666.28;3509891;28;20032;-78
2021/10/01 08:23:58;;;;;;;22.50;12.35;;;;;;;11.47;53.81;101662.09;3509572;28;20097;-78
2021/10/01 08:25:39;;;;;;;18.02;12.13;;;;;;;11.44;53.70;101662.41;3509950;28;20097;-78
2021/10/01 08:27:26;;;;;;;18.83;12.57;;;;;;;11.46;54.50;101666.59;3498813;28;20032;-76
2021/10/01 08:29:08;;;;;;;23.35;11.15;;;;;;;11.52;54.87;101668.66;3509558;28;20125;-76
2021/10/01 08:30:48;;;;;;;18.75;11.23;;;;;;;11.61;54.83;101661.53;3509355;28;20047;-78
2021/10/01 08:32:30;;;;;;;17.48;10.73;;;;;;;11.66;54.86;101671.78;3512371;28;20064;-76
2021/10/01 08:34:12;;;;;;;22.30;13.02;;;;;;;11.66;54.71;101666.44;3496352;28;20049;-76
2021/10/01 08:35:52;;;;;;;19.55;11.95;;;;;;;11.62;54.36;101663.25;3492700;28;20519;-74
2021/10/01 08:37:33;;;;;;;14.93;11.40;;;;;;;11.57;53.91;101666.38;3508367;28;20070;-76
2021/10/01 08:39:15;;;;;;;20.55;12.45;;;;;;;11.52;53.37;101655.31;3510285;28;20384;-77
2021/10/01 08:40:59;;;;;;;18.98;12.25;;;;;;;11.50;52.77;101667.13;3496105;28;20059;-79
2021/10/01 08:42:39;;;;;;;16.67;12.13;;;;;;;11.43;52.67;101666.88;3495274;28;20044;-77
2021/10/01 08:44:20;;;;;;;17.10;11.88;;;;;;;11.45;53.73;101669.41;3508662;28;20525;-76
2021/10/01 08:46:03;;;;;;;19.35;11.40;;;;;;;11.49;54.21;101666.28;3494886;28;20534;-75
2021/10/01 08:47:45;;;;;;;19.00;12.32;;;;;;;11.57;53.65;101668.19;3507404;28;20066;-76
2021/10/01 08:49:27;;;;;;;14.70;10.70;;;;;;;11.64;54.15;101665.75;3510652;28;20051;-76
2021/10/01 08:51:11;;;;;;;14.98;10.85;;;;;;;11.69;53.14;101663.44;3510298;28;20036;-75
2021/10/01 08:52:52;;;;;;;16.70;12.48;;;;;;;11.73;53.04;101665.66;3510021;28;20047;-77
2021/10/01 08:54:34;;;;;;;17.75;11.35;;;;;;;11.78;53.63;101668.72;3510642;28;20052;-75
2021/10/01 08:56:15;;;;;;;21.08;11.75;;;;;;;11.88;54.05;101670.50;3509764;28;20040;-75
2021/10/01 08:57:56;;;;;;;18.60;12.18;;;;;;;11.89;53.98;101672.19;3510280;28;20078;-78
2021/10/01 08:59:38;;;;;;;14.90;11.70;;;;;;;11.88;53.02;101676.69;3494966;28;20048;-77
2021/10/01 09:01:19;;;;;;;;;;;;;;;11.95;52.79;101671.56;3493147;28;20470;-79
2021/10/01 09:03:00;;;;;;;19.90;12.18;;;;;;;11.89;52.96;101666.84;3491847;28;19935;-78
2021/10/01 09:04:41;;;;;;;17.20;10.50;;;;;;;11.94;54.16;101672.56;3507202;28;20506;-75
2021/10/01 09:06:22;;;;;;;21.38;11.18;;;;;;;12.06;54.73;101670.50;3509757;28;20040;-75
2021/10/01 09:08:15;;;;;;;19.40;12.15;;;;;;;12.19;53.85;101673.59;3509945;28;20039;-75
2021/10/01 09:09:56;;;;;;;22.10;11.35;;;;;;;12.18;53.43;101672.75;3509115;28;20043;-74
2021/10/01 09:11:45;;;;;;;14.45;10.80;;;;;;;12.20;54.12;101675.25;3509427;28;20043;-74
2021/10/01 09:13:26;;;;;;;18.25;11.70;;;;;;;12.23;53.69;101680.28;3509720;28;20070;-75
2021/10/01 09:15:09;;;;;;;20.13;12.98;;;;;;;12.25;52.81;101672.13;3510073;28;20044;-75
2021/10/01 09:16:54;;;;;;;18.35;12.13;;;;;;;12.25;53.72;101667.63;3481157;28;20105;-75
2021/10/01 09:18:37;;;;;;;18.23;11.10;;;;;;;12.30;55.04;101672.50;3504771;28;20036;-74
2021/10/01 09:20:24;;;;;;;16.58;11.20;;;;;;;12.37;54.11;101669.03;3494799;28;20033;-79
2021/10/01 09:22:12;;;;;;;30.08;19.63;;;;;;;12.37;53.56;101665.53;3493373;28;20063;-75
2021/10/01 09:24:09;;;;;;;23.98;15.45;;;;;;;12.39;52.77;101667.06;3492146;28;20045;-72
2021/10/01 09:26:05;;;;;;;21.40;13.45;;;;;;;12.45;52.70;101662.91;3509295;28;20499;-74
2021/10/01 09:27:51;;;;;;;17.52;11.35;;;;;;;12.48;52.77;101670.59;3509690;28;20048;-74